Time;durP1;ratioP1;P1;durP2;ratioP2;P2;SDS_P1;SDS_P2;PMS_P1;PMS_P2;Temp;Humidity;BMP_temperature;BMP_pressure;BME280_temperature;BME280_humidity;BME280_pressure;Samples;Min_cycle;Max_cycle;Signal;HPM_P1;HPM_P2
2022/07/19 00:00:14;;;;;;;7.50;5.72;;;18.60;99.90;;;;;;4966343;28;20042;-91
2022/07/19 00:02:40;;;;;;;8.13;6.13;;;18.50;99.90;;;;;;4972150;28;20092;-90
2022/07/19 00:05:08;;;;;;;9.07;6.40;;;18.60;99.90;;;;;;4977286;28;20038;-90
2022/07/19 00:07:34;;;;;;;9.45;5.90;;;18.60;99.90;;;;;;4965568;28;20508;-90
2022/07/19 00:10:00;;;;;;;8.45;5.43;;;18.60;99.90;;;;;;4972945;28;20042;-89
2022/07/19 00:12:26;;;;;;;8.38;5.68;;;18.60;99.90;;;;;;4966077;28;20526;-90
2022/07/19 00:14:52;;;;;;;9.35;5.65;;;18.60;99.90;;;;;;4961800;28;20054;-90
2022/07/19 00:17:18;;;;;;;12.00;5.90;;;18.50;99.90;;;;;;4974424;28;20120;-90
2022/07/19 00:19:44;;;;;;;8.65;5.25;;;18.50;99.90;;;;;;4967946;28;20046;-90
2022/07/19 00:22:09;;;;;;;9.63;5.93;;;18.60;99.90;;;;;;4971165;28;20486;-89
2022/07/19 00:24:35;;;;;;;7.40;5.72;;;18.50;99.90;;;;;;4961270;28;20046;-90
2022/07/19 00:27:01;;;;;;;9.85;5.70;;;18.50;99.90;;;;;;4970800;28;20049;-90
2022/07/19 00:29:27;;;;;;;8.75;5.72;;;18.40;99.90;;;;;;4970256;28;20077;-88
2022/07/19 00:31:53;;;;;;;7.22;5.57;;;18.40;99.90;;;;;;4970628;28;20136;-91
2022/07/19 00:34:18;;;;;;;8.65;5.72;;;18.40;99.90;;;;;;4964329;28;20046;-91
2022/07/19 00:36:44;;;;;;;8.45;6.30;;;18.30;99.90;;;;;;4964297;28;20057;-90
2022/07/19 00:39:10;;;;;;;9.98;6.35;;;18.40;99.90;;;;;;4961197;28;20049;-90
2022/07/19 00:41:43;;;;;;;9.68;6.75;;;18.30;99.90;;;;;;4966579;28;20518;-92
2022/07/19 00:44:10;;;;;;;7.72;6.15;;;18.30;99.90;;;;;;4969423;28;20038;-91
2022/07/19 00:46:36;;;;;;;12.15;6.97;;;18.20;99.90;;;;;;4978752;28;20038;-90
2022/07/19 00:49:06;;;;;;;9.52;6.50;;;18.20;99.90;;;;;;4958600;28;20046;-91
2022/07/19 00:51:37;;;;;;;9.23;6.45;;;18.10;99.90;;;;;;4961236;28;20073;-90
2022/07/19 00:54:04;;;;;;;8.32;6.03;;;18.10;99.90;;;;;;4971234;28;20074;-90
2022/07/19 00:56:34;;;;;;;7.82;6.18;;;18.10;99.90;;;;;;4965741;28;20520;-91
2022/07/19 00:59:03;;;;;;;8.35;5.93;;;18.10;99.90;;;;;;4961974;28;20192;-89
2022/07/19 01:01:29;;;;;;;10.60;6.15;;;18.00;99.90;;;;;;4965401;28;20038;-90
2022/07/19 01:03:56;;;;;;;7.32;6.57;;;18.00;99.90;;;;;;4971697;28;20073;-91
2022/07/19 01:06:25;;;;;;;10.38;6.22;;;17.90;99.90;;;;;;4961062;28;20037;-90
2022/07/19 01:08:51;;;;;;;11.30;6.57;;;17.80;99.90;;;;;;4970430;28;20135;-89
2022/07/19 01:11:17;;;;;;;8.73;6.20;;;17.70;99.90;;;;;;4970742;28;20072;-90
2022/07/19 01:13:43;;;;;;;8.40;6.55;;;17.60;99.90;;;;;;4970076;28;20068;-91
2022/07/19 01:16:09;;;;;;;9.32;6.22;;;17.60;99.90;;;;;;4971790;28;20045;-90
2022/07/19 01:18:34;;;;;;;8.55;5.80;;;17.50;99.90;;;;;;4978118;28;20470;-89
2022/07/19 01:21:04;;;;;;;7.53;5.90;;;17.50;99.90;;;;;;4969682;28;20475;-89
2022/07/19 01:23:30;;;;;;;8.38;6.28;;;17.40;99.90;;;;;;4969977;28;20077;-90
2022/07/19 01:25:56;;;;;;;10.20;6.82;;;17.40;99.90;;;;;;4975234;28;20070;-90
2022/07/19 01:28:22;;;;;;;8.52;6.15;;;17.20;99.90;;;;;;4975587;28;20058;-91
2022/07/19 01:30:48;;;;;;;8.30;6.85;;;17.20;99.90;;;;;;4973926;28;20089;-91
2022/07/19 01:33:13;;;;;;;8.98;5.85;;;17.20;99.90;;;;;;4969318;28;20073;-90
2022/07/19 01:35:39;;;;;;;10.68;7.07;;;17.20;99.90;;;;;;4976490;28;20053;-90
2022/07/19 01:38:05;;;;;;;7.50;6.10;;;17.20;99.90;;;;;;4975660;28;20148;-90
2022/07/19 01:40:33;;;;;;;9.43;6.97;;;17.10;99.90;;;;;;4970297;28;20515;-89
2022/07/19 01:42:59;;;;;;;9.05;6.78;;;17.10;99.90;;;;;;4974707;28;20050;-90
2022/07/19 01:45:25;;;;;;;9.80;6.88;;;16.90;99.90;;;;;;4974191;28;20050;-91
2022/07/19 01:47:51;;;;;;;10.32;6.30;;;16.90;1.00;;;;;;4970958;28;20088;-91
2022/07/19 01:50:18;;;;;;;9.63;6.63;;;16.90;99.90;;;;;;4973999;28;20074;-91
2022/07/19 01:52:45;;;;;;;8.07;7.07;;;17.00;99.90;;;;;;4970711;28;20123;-90
2022/07/19 01:55:13;;;;;;;10.80;7.15;;;17.00;1.00;;;;;;4969754;28;20326;-92
2022/07/19 01:57:39;;;;;;;9.82;7.47;;;16.90;99.90;;;;;;4969933;28;20089;-92
2022/07/19 02:00:06;;;;;;;10.35;7.60;;;16.80;1.00;;;;;;4970101;28;20180;-90
2022/07/19 02:02:32;;;;;;;9.52;6.75;;;16.70;1.00;;;;;;4980975;28;20039;-90
2022/07/19 02:04:57;;;;;;;8.98;6.45;;;16.70;1.00;;;;;;4979135;28;20139;-92
2022/07/19 02:07:23;;;;;;;9.48;7.18;;;16.80;99.90;;;;;;4974585;28;20041;-91
2022/07/19 02:09:49;;;;;;;8.63;6.78;;;16.70;99.90;;;;;;4974645;28;20366;-92
2022/07/19 02:12:14;;;;;;;9.70;7.00;;;16.70;99.90;;;;;;4967825;28;20045;-91
2022/07/19 02:14:40;;;;;;;11.18;7.05;;;16.70;99.90;;;;;;4973137;28;20571;-90
2022/07/19 02:17:06;;;;;;;8.98;7.22;;;16.80;99.90;;;;;;4974003;28;20046;-91
2022/07/19 02:19:32;;;;;;;8.85;7.15;;;16.70;99.90;;;;;;4974221;28;20045;-91
2022/07/19 02:21:57;;;;;;;8.18;6.53;;;16.80;1.00;;;;;;4967471;28;20092;-90
2022/07/19 02:24:23;;;;;;;10.15;7.30;;;16.60;1.00;;;;;;4980052;28;20073;-89
2022/07/19 02:26:49;;;;;;;10.30;6.80;;;16.60;99.90;;;;;;4974499;28;20084;-90
2022/07/19 02:29:14;;;;;;;9.10;6.18;;;16.50;99.90;;;;;;4957887;28;20046;-91
2022/07/19 02:31:40;;;;;;;8.95;7.53;;;16.50;1.00;;;;;;4974389;28;20046;-91
2022/07/19 02:34:06;;;;;;;7.40;6.68;;;16.50;1.00;;;;;;4965406;28;20053;-91
2022/07/19 02:36:32;;;;;;;11.57;8.13;;;16.50;1.00;;;;;;4965742;28;20095;-91
2022/07/19 02:38:59;;;;;;;9.43;7.80;;;16.60;1.00;;;;;;4972661;28;20492;-91
2022/07/19 02:41:24;;;;;;;12.30;7.97;;;16.60;1.00;;;;;;4970990;28;20041;-91
2022/07/19 02:43:50;;;;;;;8.75;7.78;;;16.60;1.00;;;;;;4971485;28;20497;-91
2022/07/19 02:46:16;;;;;;;8.32;7.43;;;16.60;1.00;;;;;;4972434;28;20081;-91
2022/07/19 02:48:42;;;;;;;9.98;8.10;;;16.60;1.00;;;;;;4973316;28;20042;-91
2022/07/19 02:51:14;;;;;;;8.57;7.22;;;16.50;1.00;;;;;;4967700;28;20046;-91
2022/07/19 02:53:39;;;;;;;12.75;7.78;;;16.50;1.00;;;;;;4971883;28;20048;-90
2022/07/19 02:56:05;;;;;;;9.48;6.90;;;16.50;1.00;;;;;;4970918;28;20042;-91
2022/07/19 02:58:31;;;;;;;11.93;7.88;;;16.60;1.00;;;;;;4973971;28;20050;-92
2022/07/19 03:00:57;;;;;;;11.05;7.57;;;16.50;1.00;;;;;;4974054;28;20462;-91
2022/07/19 03:06:07;;;;;;;8.57;7.22;;;16.50;1.00;;;;;;4979799;28;20042;-91
2022/07/19 03:08:33;;;;;;;8.30;7.38;;;16.50;1.00;;;;;;4963574;28;20339;-91
2022/07/19 03:10:59;;;;;;;12.10;7.68;;;16.40;1.00;;;;;;4963120;28;20050;-91
2022/07/19 03:13:24;;;;;;;9.88;7.15;;;16.50;1.00;;;;;;4971180;28;20057;-92
2022/07/19 03:15:50;;;;;;;9.30;6.70;;;16.50;1.00;;;;;;4978276;28;20523;-91
2022/07/19 03:18:16;;;;;;;9.65;7.28;;;16.60;1.00;;;;;;4970813;28;20041;-92
2022/07/19 03:20:42;;;;;;;11.07;7.45;;;16.50;1.00;;;;;;4973523;28;20066;-91
2022/07/19 03:23:07;;;;;;;10.95;7.90;;;16.50;1.00;;;;;;4978535;28;20052;-91
2022/07/19 03:25:36;;;;;;;11.38;8.15;;;16.50;1.00;;;;;;4969701;28;20101;-92
2022/07/19 03:28:02;;;;;;;10.13;7.88;;;16.40;1.00;;;;;;4973718;28;20080;-90
2022/07/19 03:30:28;;;;;;;11.80;8.07;;;16.40;6.10;;;;;;4977989;28;20065;-92
2022/07/19 03:32:54;;;;;;;8.18;7.03;;;16.40;49.70;;;;;;4965903;28;20449;-92
2022/07/19 03:35:20;;;;;;;7.72;6.35;;;16.40;3.00;;;;;;4972483;28;20042;-92
2022/07/19 03:37:46;;;;;;;10.27;7.25;;;16.40;1.00;;;;;;4963474;28;20041;-92
2022/07/19 03:40:12;;;;;;;10.02;6.93;;;16.40;1.00;;;;;;4973942;28;20046;-91
2022/07/19 03:42:38;;;;;;;9.02;6.57;;;16.40;1.00;;;;;;4982522;28;20046;-92
2022/07/19 03:45:05;;;;;;;9.07;6.68;;;16.40;1.00;;;;;;4971580;28;20049;-91
2022/07/19 03:47:31;;;;;;;8.40;6.22;;;16.40;1.00;;;;;;4967299;28;20039;-92
2022/07/19 03:49:57;;;;;;;9.57;6.70;;;16.40;1.00;;;;;;4987679;28;20376;-91
2022/07/19 03:52:23;;;;;;;9.93;6.78;;;16.40;1.00;;;;;;4960833;28;20148;-91
2022/07/19 03:54:49;;;;;;;9.32;6.95;;;16.40;1.00;;;;;;4971312;28;20134;-92
2022/07/19 03:57:15;;;;;;;8.98;6.50;;;16.40;1.00;;;;;;4964448;28;20145;-91
2022/07/19 03:59:40;;;;;;;8.10;6.72;;;16.40;1.00;;;;;;4968984;28;20051;-92
2022/07/19 04:02:06;;;;;;;9.02;6.57;;;16.50;1.00;;;;;;4967302;28;20042;-90
2022/07/19 04:04:32;;;;;;;12.82;6.90;;;16.50;1.00;;;;;;4955576;28;20035;-91
2022/07/19 04:06:58;;;;;;;7.80;6.40;;;16.50;1.00;;;;;;4982553;28;20050;-93
2022/07/19 04:09:23;;;;;;;8.20;6.05;;;16.60;99.90;;;;;;4961213;28;20101;-92
2022/07/19 04:11:49;;;;;;;7.03;6.28;;;16.60;99.90;;;;;;4960660;28;20053;-91
2022/07/19 04:14:15;;;;;;;9.38;6.80;;;16.70;99.90;;;;;;4970427;28;20185;-91
2022/07/19 04:16:41;;;;;;;9.45;6.53;;;16.70;99.90;;;;;;4962041;28;20046;-92
2022/07/19 04:19:06;;;;;;;7.32;6.40;;;16.80;1.00;;;;;;4970477;28;20134;-92
2022/07/19 04:21:32;;;;;;;10.70;6.88;;;16.80;99.90;;;;;;4958190;28;20501;-92
2022/07/19 04:24:01;;;;;;;8.93;6.43;;;16.90;1.00;;;;;;4961343;28;20510;-92
2022/07/19 04:26:27;;;;;;;11.32;6.30;;;16.90;1.00;;;;;;4969034;28;20561;-91
2022/07/19 04:28:52;;;;;;;8.93;6.68;;;17.00;1.00;;;;;;4959537;28;20137;-92
2022/07/19 04:31:18;;;;;;;9.45;6.80;;;17.10;1.00;;;;;;4985571;28;20520;-92
2022/07/19 04:33:44;;;;;;;10.27;6.80;;;17.10;1.00;;;;;;4967486;28;20042;-91
2022/07/19 04:36:09;;;;;;;8.48;6.55;;;17.20;99.90;;;;;;4968279;28;20050;-92
2022/07/19 04:38:35;;;;;;;8.48;6.18;;;17.30;99.90;;;;;;4966784;28;20042;-91
2022/07/19 04:41:04;;;;;;;10.23;6.22;;;17.40;99.90;;;;;;4963945;28;20081;-91
2022/07/19 04:43:30;;;;;;;14.85;6.60;;;17.40;99.90;;;;;;4966857;28;20228;-91
2022/07/19 04:45:59;;;;;;;7.93;6.15;;;17.40;1.00;;;;;;4967172;28;20205;-92
2022/07/19 04:48:26;;;;;;;7.55;6.22;;;17.50;1.00;;;;;;4959557;28;20074;-91
2022/07/19 04:50:52;;;;;;;9.50;6.22;;;17.60;99.90;;;;;;4966067;28;20038;-92
2022/07/19 04:53:20;;;;;;;9.32;6.80;;;17.70;99.90;;;;;;4967567;28;20165;-92
2022/07/19 04:55:46;;;;;;;8.40;6.38;;;17.80;99.90;;;;;;4958034;28;20058;-92
2022/07/19 04:58:11;;;;;;;9.77;6.50;;;17.90;99.90;;;;;;4962321;28;20062;-91
2022/07/19 05:00:37;;;;;;;9.82;6.57;;;18.00;99.90;;;;;;4972820;28;20565;-91
2022/07/19 05:03:05;;;;;;;7.18;6.00;;;18.10;1.00;;;;;;4977060;28;20039;-92
2022/07/19 05:05:31;;;;;;;9.75;6.30;;;18.20;99.90;;;;;;4970437;28;20043;-92
2022/07/19 05:07:56;;;;;;;9.52;6.35;;;18.30;99.90;;;;;;4973459;28;20100;-92
2022/07/19 05:10:22;;;;;;;8.82;6.28;;;18.30;99.90;;;;;;4959888;28;20042;-91
2022/07/19 05:12:48;;;;;;;7.68;5.93;;;18.50;99.90;;;;;;4962965;28;20050;-92
2022/07/19 05:15:14;;;;;;;8.88;6.50;;;18.50;99.90;;;;;;4973274;28;20053;-92
2022/07/19 05:17:40;;;;;;;11.73;6.20;;;18.60;99.90;;;;;;4963653;28;20480;-91
2022/07/19 05:20:07;;;;;;;8.38;6.20;;;18.70;99.90;;;;;;4963423;28;20078;-93
2022/07/19 05:22:33;;;;;;;7.30;6.18;;;18.90;99.90;;;;;;4970301;28;20081;-90
2022/07/19 05:24:59;;;;;;;7.72;6.05;;;19.00;99.90;;;;;;4968596;28;20038;-91
2022/07/19 05:27:25;;;;;;;7.68;5.90;;;19.10;99.90;;;;;;4967536;28;20043;-92
2022/07/19 05:29:50;;;;;;;8.63;6.80;;;19.20;99.90;;;;;;4965732;28;20042;-91
2022/07/19 05:32:17;;;;;;;9.10;6.15;;;19.30;1.00;;;;;;4973188;28;20125;-91
2022/07/19 05:34:43;;;;;;;11.85;6.50;;;19.40;99.90;;;;;;4965538;28;20656;-91
2022/07/19 05:37:08;;;;;;;9.93;6.30;;;19.50;1.00;;;;;;4964059;28;20085;-91
2022/07/19 05:39:34;;;;;;;9.85;6.43;;;19.60;1.00;;;;;;4966212;28;20383;-91
2022/07/19 05:42:00;;;;;;;9.80;6.00;;;19.80;1.00;;;;;;4968145;28;20046;-91
2022/07/19 05:44:25;;;;;;;9.43;6.18;;;19.90;99.90;;;;;;4965047;28;20341;-92
2022/07/19 05:46:51;;;;;;;7.03;5.70;;;20.10;99.90;;;;;;4970292;28;20203;-91
2022/07/19 05:49:17;;;;;;;6.55;5.85;;;20.20;99.90;;;;;;4962101;28;20038;-91
2022/07/19 05:51:45;;;;;;;7.45;5.75;;;20.30;99.90;;;;;;4967170;28;20085;-91
2022/07/19 05:54:11;;;;;;;8.48;5.40;;;20.50;99.90;;;;;;4962464;28;20532;-92
2022/07/19 05:56:37;;;;;;;8.68;5.75;;;20.60;99.90;;;;;;4972565;28;20053;-92
2022/07/19 05:59:03;;;;;;;7.22;5.25;;;20.70;99.90;;;;;;4967503;28;20065;-92
2022/07/19 06:01:28;;;;;;;8.40;5.93;;;20.90;99.90;;;;;;4959928;28;20064;-92
2022/07/19 06:04:00;;;;;;;9.40;5.90;;;21.00;99.90;;;;;;4971370;28;20160;-93
2022/07/19 06:06:28;;;;;;;8.85;5.55;;;21.10;99.90;;;;;;4972623;28;20436;-91
2022/07/19 06:08:54;;;;;;;9.40;5.50;;;21.20;99.90;;;;;;4963374;28;20057;-92
2022/07/19 06:11:20;;;;;;;10.45;5.10;;;21.30;74.60;;;;;;4969274;28;20042;-92
2022/07/19 06:13:47;;;;;;;7.45;5.32;;;21.50;47.40;;;;;;4962648;28;20354;-92
2022/07/19 06:16:16;;;;;;;6.05;5.07;;;21.60;28.50;;;;;;4967622;28;20077;-92
2022/07/19 06:18:42;;;;;;;8.57;5.10;;;21.70;16.30;;;;;;4962717;28;20390;-91
2022/07/19 06:21:10;;;;;;;7.20;4.78;;;21.80;11.50;;;;;;4964129;28;20058;-92
2022/07/19 06:23:37;;;;;;;11.48;5.18;;;22.00;1.50;;;;;;4968852;28;20042;-92
2022/07/19 06:26:04;;;;;;;8.02;4.97;;;22.10;1.00;;;;;;4970332;28;20277;-91
2022/07/19 06:28:33;;;;;;;7.28;4.97;;;22.20;1.00;;;;;;4970023;28;20467;-92
2022/07/19 06:30:59;;;;;;;11.07;4.97;;;22.30;1.00;;;;;;4971921;28;20072;-92
2022/07/19 06:33:25;;;;;;;8.57;5.20;;;22.50;1.00;;;;;;4969608;28;20074;-91
2022/07/19 06:35:51;;;;;;;6.30;4.90;;;22.60;1.00;;;;;;4968701;28;20121;-92
2022/07/19 06:38:17;;;;;;;7.03;4.70;;;22.70;1.00;;;;;;4970900;28;20056;-91
2022/07/19 06:40:43;;;;;;;6.82;4.90;;;22.90;1.00;;;;;;4965970;28;20065;-92
2022/07/19 06:43:11;;;;;;;6.95;4.60;;;23.00;1.00;;;;;;4971545;28;20069;-92
2022/07/19 06:45:37;;;;;;;6.25;4.93;;;23.20;1.00;;;;;;4959586;28;20169;-92
2022/07/19 06:48:03;;;;;;;6.47;4.63;;;23.30;1.00;;;;;;4969829;28;20069;-92
2022/07/19 06:50:29;;;;;;;5.50;4.15;;;23.40;1.00;;;;;;4969914;28;20084;-91
2022/07/19 06:52:55;;;;;;;7.00;4.15;;;23.50;1.00;;;;;;4965891;28;20073;-92
2022/07/19 06:55:21;;;;;;;8.23;4.85;;;23.60;1.00;;;;;;4960031;28;20082;-91
2022/07/19 06:57:46;;;;;;;6.93;4.43;;;23.70;1.00;;;;;;4969002;28;20054;-92
2022/07/19 07:00:16;;;;;;;5.22;4.00;;;23.90;1.00;;;;;;4960766;28;20058;-91
2022/07/19 07:02:42;;;;;;;6.32;4.15;;;23.90;1.00;;;;;;4979890;28;20113;-92
2022/07/19 07:05:10;;;;;;;7.03;3.83;;;24.00;1.00;;;;;;4969233;28;20173;-92
2022/07/19 07:07:36;;;;;;;7.25;4.10;;;24.30;1.00;;;;;;4971237;28;20066;-92
2022/07/19 07:10:06;;;;;;;6.32;4.10;;;24.30;1.00;;;;;;4985719;28;20551;-91
2022/07/19 07:12:32;;;;;;;7.63;4.03;;;24.50;1.00;;;;;;4963051;28;20054;-92
2022/07/19 07:14:58;;;;;;;6.07;4.05;;;24.60;1.00;;;;;;4967604;28;20716;-92
2022/07/19 07:17:24;;;;;;;6.75;4.18;;;24.60;1.00;;;;;;4963335;28;20525;-92
2022/07/19 07:19:49;;;;;;;8.82;3.88;;;24.90;1.00;;;;;;4962818;28;20085;-92
2022/07/19 07:22:15;;;;;;;5.47;3.92;;;24.90;1.00;;;;;;4960752;28;20038;-91
2022/07/19 07:24:41;;;;;;;6.85;4.05;;;25.00;1.00;;;;;;4971561;28;20042;-92
2022/07/19 07:27:07;;;;;;;8.32;4.18;;;25.20;99.90;;;;;;4964003;28;20043;-90
2022/07/19 07:29:36;;;;;;;6.05;4.15;;;25.30;99.90;;;;;;4965397;28;20050;-91
2022/07/19 07:32:02;;;;;;;6.20;3.60;;;25.40;99.90;;;;;;4959364;28;20047;-91
2022/07/19 07:34:28;;;;;;;5.93;3.63;;;25.60;99.90;;;;;;4968690;28;20054;-91
2022/07/19 07:36:53;;;;;;;6.40;4.00;;;25.70;99.90;;;;;;4971688;28;20042;-92
2022/07/19 07:39:19;;;;;;;5.50;3.65;;;25.70;99.90;;;;;;4958844;28;20050;-91
2022/07/19 07:41:45;;;;;;;4.38;3.97;;;25.80;99.90;;;;;;4970911;28;20137;-92
2022/07/19 07:44:19;;;;;;;6.50;3.60;;;26.00;99.90;;;;;;5141459;27;20901;-92
2022/07/19 07:46:45;;;;;;;8.32;3.90;;;26.10;99.90;;;;;;5096279;27;20043;-91
2022/07/19 07:49:11;;;;;;;8.63;3.92;;;26.00;99.90;;;;;;5098153;27;20043;-91
2022/07/19 07:51:37;;;;;;;5.05;3.85;;;26.30;99.90;;;;;;5102387;27;20496;-90
2022/07/19 07:54:03;;;;;;;7.53;3.58;;;26.40;99.90;;;;;;5096460;27;20035;-90
2022/07/19 07:56:28;;;;;;;4.45;3.63;;;26.60;99.90;;;;;;5103348;27;20073;-91
2022/07/19 07:58:57;;;;;;;4.57;3.28;;;26.70;99.90;;;;;;5092589;27;20071;-89
2022/07/19 08:01:23;;;;;;;4.72;3.13;;;26.80;99.90;;;;;;5105057;27;20046;-90
2022/07/19 08:03:49;;;;;;;4.78;3.60;;;26.90;99.90;;;;;;5114934;27;20042;-90
2022/07/19 08:06:15;;;;;;;7.90;3.70;;;27.00;99.90;;;;;;5101433;28;20352;-91
2022/07/19 08:08:41;;;;;;;6.18;3.50;;;27.00;99.90;;;;;;5100132;27;20577;-90
2022/07/19 08:11:07;;;;;;;7.07;3.67;;;27.10;99.90;;;;;;5102478;27;20078;-82
2022/07/19 08:13:33;;;;;;;7.95;3.55;;;27.40;99.90;;;;;;5109130;27;20078;-82
2022/07/19 08:15:59;;;;;;;5.28;3.15;;;27.40;99.90;;;;;;5090918;27;20220;-82
2022/07/19 08:18:25;;;;;;;5.57;3.30;;;27.60;99.90;;;;;;5088311;27;20523;-82
2022/07/19 08:20:51;;;;;;;7.38;3.67;;;27.60;99.90;;;;;;5092531;27;20502;-82
2022/07/19 08:23:16;;;;;;;4.22;3.17;;;27.80;99.90;;;;;;5096173;27;20035;-82
2022/07/19 08:25:42;;;;;;;6.93;3.35;;;27.90;99.90;;;;;;5104910;27;20696;-82
2022/07/19 08:28:08;;;;;;;5.63;2.85;;;28.00;99.90;;;;;;5120797;27;20118;-81
2022/07/19 08:30:33;;;;;;;5.20;3.00;;;28.20;99.90;;;;;;5096851;27;20400;-82
2022/07/19 08:33:00;;;;;;;4.47;3.17;;;28.20;99.90;;;;;;5108362;27;20293;-82
2022/07/19 08:35:33;;;;;;;4.63;3.10;;;28.30;99.90;;;;;;5087433;27;20039;-81
2022/07/19 08:37:58;;;;;;;4.10;3.13;;;28.30;99.90;;;;;;5107089;27;20065;-82
2022/07/19 08:40:24;;;;;;;6.18;3.30;;;28.60;99.90;;;;;;5114631;27;20039;-82
2022/07/19 08:42:51;;;;;;;4.78;2.92;;;28.50;99.90;;;;;;5083656;28;20059;-82
2022/07/19 08:45:17;;;;;;;8.50;3.70;;;28.80;99.90;;;;;;5105730;27;20039;-81
2022/07/19 08:47:44;;;;;;;6.05;3.10;;;28.80;99.90;;;;;;5094147;27;20088;-82
2022/07/19 08:50:11;;;;;;;4.75;3.00;;;28.90;99.90;;;;;;5117255;27;20433;-82
2022/07/19 08:52:37;;;;;;;5.45;3.20;;;29.20;99.90;;;;;;5111983;27;20039;-82
2022/07/19 08:55:04;;;;;;;5.88;2.75;;;29.30;99.90;;;;;;5098042;27;20096;-82
2022/07/19 09:00:15;;;;;;;5.03;2.72;;;29.40;99.90;;;;;;5106588;27;20051;-82
2022/07/19 09:03:03;;;;;;;7.78;3.00;;;29.60;99.90;;;;;;5088531;27;20132;-82
2022/07/19 09:05:31;;;;;;;3.92;2.70;;;29.70;99.90;;;;;;5089596;27;20036;-82
2022/07/19 09:08:13;;;;;;;4.40;3.20;;;30.00;99.90;;;;;;5076128;28;20032;-82
2022/07/19 09:13:37;;;;;;;6.68;2.72;;;30.20;99.90;;;;;;5096962;27;20075;-81
2022/07/19 09:16:03;;;;;;;7.10;2.65;;;30.30;99.90;;;;;;5103113;27;20383;-82
2022/07/19 09:18:31;;;;;;;3.30;2.50;;;30.40;99.90;;;;;;5090916;27;20095;-82
2022/07/19 09:21:05;;;;;;;5.40;2.40;;;30.50;99.90;;;;;;5086482;27;20486;-82
2022/07/19 09:23:32;;;;;;;4.55;2.50;;;30.80;99.90;;;;;;5097713;27;20134;-82
2022/07/19 09:26:04;;;;;;;5.45;2.55;;;30.80;99.90;;;;;;5105624;27;20137;-82
2022/07/19 09:28:35;;;;;;;4.80;2.80;;;30.80;99.90;;;;;;5078859;27;20035;-82
2022/07/19 09:31:04;;;;;;;4.20;2.75;;;31.00;99.90;;;;;;5076375;28;20074;-82
2022/07/19 09:33:31;;;;;;;5.53;2.45;;;31.00;99.90;;;;;;5080135;27;20405;-82
2022/07/19 09:35:59;;;;;;;3.20;2.42;;;31.00;99.90;;;;;;5100219;27;20402;-82
2022/07/19 09:38:34;;;;;;;4.53;2.88;;;31.30;99.90;;;;;;5057254;28;20071;-82
2022/07/19 09:41:06;;;;;;;;;;;31.50;99.90;;;;;;5083148;27;20039;-82
2022/07/19 09:43:47;;;;;;;4.03;2.60;;;31.60;99.90;;;;;;5097196;28;19920;-82
2022/07/19 09:46:38;;;;;;;5.97;2.33;;;31.60;99.90;;;;;;5084949;28;20107;-82
2022/07/19 09:49:08;;;;;;;3.30;2.45;;;31.90;99.90;;;;;;5077913;28;20047;-82
2022/07/19 09:51:37;;;;;;;5.57;2.42;;;31.70;99.90;;;;;;5089231;28;20392;-82
2022/07/19 09:54:05;;;;;;;4.97;2.40;;;31.80;99.90;;;;;;5086300;28;20126;-82
2022/07/19 09:56:32;;;;;;;4.57;2.10;;;31.90;99.90;;;;;;5095090;28;20152;-82
2022/07/19 09:58:58;;;;;;;5.28;2.22;;;32.10;99.90;;;;;;5074298;28;20127;-82
2022/07/19 10:01:25;;;;;;;6.65;2.55;;;32.10;99.90;;;;;;5088314;28;20036;-82
2022/07/19 10:03:54;;;;;;;3.20;2.20;;;32.30;99.90;;;;;;5088609;28;20456;-83
2022/07/19 10:06:20;;;;;;;5.22;2.00;;;32.60;99.90;;;;;;5094243;28;20514;-82
2022/07/19 10:08:50;;;;;;;6.88;2.03;;;32.80;99.90;;;;;;5099781;28;20296;-82
2022/07/19 10:11:17;;;;;;;4.57;2.20;;;32.80;99.90;;;;;;5087138;28;20044;-82
2022/07/19 10:13:43;;;;;;;2.80;2.17;;;32.90;99.90;;;;;;5099426;28;20054;-82
2022/07/19 10:16:16;;;;;;;3.55;2.10;;;32.80;99.90;;;;;;5075170;28;20097;-82
2022/07/19 10:19:03;;;;;;;5.57;1.77;;;33.10;99.90;;;;;;5076995;28;20070;-82
2022/07/19 10:21:30;;;;;;;4.40;2.03;;;33.10;99.90;;;;;;5079103;28;20040;-82
2022/07/19 10:23:55;;;;;;;4.45;2.15;;;33.30;99.90;;;;;;5077968;28;20521;-82
2022/07/19 10:26:55;;;;;;;5.07;2.20;;;33.00;99.90;;;;;;5084514;28;20082;-82
2022/07/19 10:29:23;;;;;;;2.60;2.10;;;33.20;99.90;;;;;;5069653;28;20052;-82
2022/07/19 10:32:09;;;;;;;4.63;2.05;;;33.50;99.90;;;;;;5093547;28;20036;-83
2022/07/19 10:34:35;;;;;;;5.57;2.10;;;33.30;99.90;;;;;;5093830;28;20035;-81
2022/07/19 10:37:01;;;;;;;6.40;1.98;;;33.60;99.90;;;;;;5085732;28;20040;-82
2022/07/19 10:39:35;;;;;;;6.47;2.03;;;33.70;99.90;;;;;;5081361;28;20040;-83
2022/07/19 10:42:21;;;;;;;3.45;2.08;;;33.80;99.90;;;;;;5079213;27;20583;-83
2022/07/19 10:44:56;;;;;;;4.75;1.88;;;33.90;99.90;;;;;;5073853;27;20047;-82
2022/07/19 10:47:37;;;;;;;6.30;1.95;;;33.60;99.90;;;;;;5085136;27;20111;-82
2022/07/19 10:50:05;;;;;;;3.92;2.10;;;34.00;99.90;;;;;;5097280;27;20118;-82
2022/07/19 10:52:42;;;;;;;3.60;2.00;;;34.30;99.90;;;;;;5091749;27;20075;-82
2022/07/19 10:55:17;;;;;;;2.58;1.73;;;34.40;99.90;;;;;;5087100;27;20584;-82
2022/07/19 10:58:11;;;;;;;2.97;1.70;;;34.10;99.90;;;;;;5081772;27;20486;-82
2022/07/19 11:00:48;;;;;;;5.28;2.13;;;34.40;99.90;;;;;;5063834;27;20052;-82
2022/07/19 11:03:23;;;;;;;5.38;1.95;;;34.60;99.90;;;;;;5105039;27;20122;-82
2022/07/19 11:05:58;;;;;;;5.03;1.85;;;34.70;99.90;;;;;;5074428;27;20123;-82
2022/07/19 11:08:37;;;;;;;3.80;1.70;;;34.90;99.90;;;;;;5083584;27;20054;-83
2022/07/19 11:11:18;;;;;;;2.42;1.70;;;34.90;99.90;;;;;;5088492;27;20570;-82
2022/07/19 11:13:48;;;;;;;3.85;2.10;;;35.10;99.90;;;;;;5077962;27;20142;-82
2022/07/19 11:16:18;;;;;;;4.93;2.05;;;34.90;99.90;;;;;;5097938;27;20541;-83
2022/07/19 11:18:45;;;;;;;3.67;1.70;;;34.70;99.90;;;;;;5086664;27;20561;-82
2022/07/19 11:21:15;;;;;;;3.30;1.83;;;34.90;99.90;;;;;;5103776;27;20050;-82
2022/07/19 11:23:44;;;;;;;3.28;1.67;;;35.10;99.90;;;;;;5097400;27;20389;-82
2022/07/19 11:26:20;;;;;;;2.30;1.42;;;35.20;99.90;;;;;;5075968;27;20150;-82
2022/07/19 11:28:50;;;;;;;5.65;1.70;;;35.40;99.90;;;;;;5077873;27;20048;-82
2022/07/19 11:31:17;;;;;;;2.70;1.75;;;35.30;99.90;;;;;;5100811;27;20032;-82
2022/07/19 11:33:45;;;;;;;3.45;2.03;;;35.50;99.90;;;;;;5094618;28;20039;-83
2022/07/19 11:36:12;;;;;;;4.13;1.80;;;35.60;99.90;;;;;;5072178;28;20070;-82
2022/07/19 11:38:40;;;;;;;3.38;1.80;;;35.80;99.90;;;;;;5089093;27;20115;-83
2022/07/19 11:41:17;;;;;;;5.05;1.70;;;35.80;99.90;;;;;;5094902;28;20134;-83
2022/07/19 11:44:02;;;;;;;3.95;1.70;;;35.90;99.90;;;;;;5057058;28;20091;-83
2022/07/19 11:46:42;;;;;;;2.53;1.73;;;36.00;99.90;;;;;;5085157;28;20308;-83
2022/07/19 11:49:13;;;;;;;4.72;1.90;;;36.10;99.90;;;;;;5096095;28;20043;-82
2022/07/19 11:51:39;;;;;;;3.35;1.60;;;35.90;99.90;;;;;;5092919;28;20099;-83
2022/07/19 11:54:06;;;;;;;4.57;1.98;;;36.20;99.90;;;;;;5076126;28;20284;-82
2022/07/19 11:56:34;;;;;;;6.25;1.95;;;36.40;99.90;;;;;;5079255;28;20043;-83
2022/07/19 11:59:03;;;;;;;2.15;1.45;;;36.40;99.90;;;;;;5079688;28;20534;-83
2022/07/19 12:01:37;;;;;;;6.85;1.60;;;36.30;99.90;;;;;;5087910;28;20054;-83
2022/07/19 12:04:08;;;;;;;2.65;1.65;;;36.50;99.90;;;;;;5099198;28;20044;-83
2022/07/19 12:06:42;;;;;;;2.33;1.30;;;36.70;99.90;;;;;;5081857;28;20439;-83
2022/07/19 12:09:12;;;;;;;4.85;1.90;;;36.90;99.90;;;;;;5092554;28;20035;-83
2022/07/19 12:11:49;;;;;;;1.98;1.60;;;36.80;99.90;;;;;;5088195;28;20092;-84
2022/07/19 12:14:23;;;;;;;3.10;1.60;;;36.90;99.90;;;;;;5092040;28;20035;-83
2022/07/19 12:17:07;;;;;;;4.77;1.77;;;37.00;99.90;;;;;;5095751;28;20039;-83
2022/07/19 12:19:33;;;;;;;2.05;1.58;;;37.20;99.90;;;;;;5055184;28;20448;-83
2022/07/19 12:21:59;;;;;;;3.42;1.80;;;36.80;99.90;;;;;;5071820;28;20035;-83
2022/07/19 12:24:30;;;;;;;4.13;1.67;;;37.00;99.90;;;;;;5078655;28;20047;-83
2022/07/19 12:26:56;;;;;;;4.97;1.80;;;37.20;99.90;;;;;;5083814;28;20426;-84
2022/07/19 12:29:30;;;;;;;3.33;1.80;;;37.30;99.90;;;;;;5093146;27;20122;-83
2022/07/19 12:32:09;;;;;;;2.33;1.40;;;37.40;99.90;;;;;;5101151;27;20058;-83
2022/07/19 12:34:56;;;;;;;2.60;1.70;;;37.30;99.90;;;;;;5101123;27;20045;-83
2022/07/19 12:37:35;;;;;;;3.55;1.67;;;37.60;99.90;;;;;;5105893;27;20073;-83
2022/07/19 12:40:19;;;;;;;3.70;1.77;;;37.40;99.90;;;;;;5079250;27;20051;-83
2022/07/19 12:42:49;;;;;;;3.25;1.70;;;37.50;99.90;;;;;;5083107;27;20377;-83
2022/07/19 12:45:18;;;;;;;2.97;1.80;;;37.40;99.90;;;;;;5089879;27;20466;-84
2022/07/19 12:47:44;;;;;;;2.65;1.63;;;37.60;99.90;;;;;;5090203;27;20122;-83
2022/07/19 12:50:26;;;;;;;2.30;1.70;;;37.60;99.90;;;;;;5084168;27;20043;-84
2022/07/19 12:52:54;;;;;;;3.33;1.50;;;37.90;99.90;;;;;;5079637;27;20050;-83
2022/07/19 12:55:22;;;;;;;5.32;1.92;;;37.80;99.90;;;;;;5074056;28;20108;-83
2022/07/19 12:57:48;;;;;;;2.97;1.85;;;38.10;99.90;;;;;;5103974;27;20054;-83
2022/07/19 13:00:16;;;;;;;4.25;1.75;;;38.00;99.90;;;;;;5080660;27;20129;-83